Flight Track Log - Related Links

Times and Time Zones

All times are in EDT time to prevent confusion due to time zone crossing. See the SKW6335 flight status page for this flight to view local times or setup timezone preferences in your user account.

Time Position Orientation Groundspeed Altitude Reporting Facility
EDT Latitude Longitude Course Direction KTS MPH feet Rate Location/Type
Sun 07:01:47 PM 32.7667 -117.2667 292° West 178 205 2,900  Level Southern California TRACON
Sun 07:02:47 PM 32.8000 -117.3167 308° West 177 204 4,300 1,333 Climbing Southern California TRACON
Sun 07:03:08 PM 32.8022 -117.3319 280° West 171 197 4,700 1,214 Climbing Los Angeles Center
Sun 07:04:11 PM 32.8408 -117.3744 317° Northwest 179 206 6,000 1,248 Climbing Los Angeles Center
Sun 07:05:00 PM 32.9861 -117.4360 320° Northwest  Level FlightAware Approximate
Sun 07:05:13 PM 32.8778 -117.4194 314° West 186 214 7,300  Level Los Angeles Center
Sun 07:06:15 PM 32.9142 -117.4686 311° West 192 221 8,000 339 Climbing Los Angeles Center
Sun 07:07:17 PM 32.9550 -117.5239 311° West 208 239 8,000  Level Los Angeles Center
Sun 07:08:19 PM 32.9992 -117.5847 311° West 226 260 8,000  Level Los Angeles Center
Sun 07:09:21 PM 33.0514 -117.6558 311° West 235 270 8,000  Level Los Angeles Center
Sun 07:10:23 PM 33.0953 -117.7172 310° West 240 276 8,000  Level Los Angeles Center
Sun 07:11:25 PM 33.1478 -117.7619 325° Northwest 241 277 8,000  Level Los Angeles Center
Sun 07:12:27 PM 33.2114 -117.7917 339° North 247 284 8,000  Level Los Angeles Center
Sun 07:13:29 PM 33.2753 -117.8219 338° Northwest 246 283 8,000  Level Los Angeles Center
Sun 07:14:31 PM 33.3514 -117.8567 339° North 245 282 8,000  Level Los Angeles Center
Sun 07:15:46 PM 33.4278 -117.8906 340° North 245 282 8,000  Level Los Angeles Center
Sun 07:16:48 PM 33.4922 -117.9200 339° North 247 284 8,000 -194 Level Los Angeles Center
Sun 07:17:50 PM 33.5556 -117.9481 340° North 245 282 7,600 -532 Descending Los Angeles Center
Sun 07:18:52 PM 33.6181 -117.9761 340° North 243 280 6,900 -298 Descending Los Angeles Center
Sun 07:19:51 PM 33.7000 -118.0167 338° Northwest 244 281 7,000 53 Climbing Southern California TRACON
Sun 07:20:45 PM 33.7500 -118.0333 345° North 243 280 7,000  Level Southern California TRACON
Sun 07:21:45 PM 33.8167 -118.0667 337° Northwest 240 276 7,000 -300 Level Southern California TRACON
Sun 07:22:45 PM 33.8667 -118.0667 360° North 206 237 6,400 -1,000 Descending Southern California TRACON
Sun 07:23:51 PM 33.9333 -118.0500 12° North 209 241 4,900 -1,143 Descending Southern California TRACON
Sun 07:24:51 PM 33.9667 -118.0833 320° Northwest 191 220 4,000 -446 Descending Southern California TRACON
Sun 07:25:52 PM 33.9667 -118.1500 270° West 182 209 4,000 -136 Level Southern California TRACON
Sun 07:26:19 PM 33.9603 -118.1639 241° Southwest 183 211 3,800 -876 Descending Los Angeles Center
Sun 07:27:21 PM 33.9547 -118.2261 264° West 186 214 2,700 -1,065 Descending Los Angeles Center

Login

Don't have an account? Register now (free) for customized features, flight alerts, and more!